Time;durP1;ratioP1;P1;durP2;ratioP2;P2;SDS_P1;SDS_P2;PMS_P1;PMS_P2;Temp;Humidity;BMP_temperature;BMP_pressure;BME280_temperature;BME280_humidity;BME280_pressure;Samples;Min_cycle;Max_cycle;Signal;HPM_P1;HPM_P2
2024/03/24 00:01:50;;;;;;;7.45;1.83;;;4.00;99.90;;;;;;5049573;28;20117;-55
2024/03/24 00:04:15;;;;;;;4.57;2.03;;;4.00;99.90;;;;;;5049971;28;20033;-55
2024/03/24 00:06:41;;;;;;;5.07;2.75;;;4.00;99.90;;;;;;5049899;28;20500;-55
2024/03/24 00:09:08;;;;;;;9.88;2.55;;;4.10;99.90;;;;;;5050167;28;20070;-55
2024/03/24 00:11:34;;;;;;;8.63;2.08;;;4.10;99.90;;;;;;5046997;28;20080;-57
2024/03/24 00:14:00;;;;;;;7.93;2.78;;;4.10;99.90;;;;;;5048665;28;20743;-56
2024/03/24 00:16:25;;;;;;;2.72;1.80;;;4.10;99.90;;;;;;5049351;28;20036;-59
2024/03/24 00:18:51;;;;;;;9.68;1.80;;;4.10;99.90;;;;;;5047611;28;20078;-57
2024/03/24 00:21:17;;;;;;;4.65;1.90;;;4.20;99.90;;;;;;5047705;28;20118;-56
2024/03/24 00:23:42;;;;;;;7.45;2.03;;;4.20;99.90;;;;;;5048177;28;20024;-55
2024/03/24 00:26:08;;;;;;;3.65;1.92;;;4.20;99.90;;;;;;5046126;28;20029;-56
2024/03/24 00:28:35;;;;;;;4.72;1.77;;;4.20;99.90;;;;;;5047988;28;20041;-57
2024/03/24 00:31:00;;;;;;;7.85;2.42;;;4.20;99.90;;;;;;5049482;28;20021;-55
2024/03/24 00:33:26;;;;;;;5.50;2.20;;;4.20;99.90;;;;;;5048371;28;20044;-56
2024/03/24 00:35:51;;;;;;;5.70;2.75;;;4.20;99.90;;;;;;5049302;28;20660;-53
2024/03/24 00:38:17;;;;;;;7.28;2.33;;;4.20;99.90;;;;;;5049362;28;20497;-53
2024/03/24 00:40:42;;;;;;;8.40;2.45;;;4.20;99.90;;;;;;5045701;28;20028;-52
2024/03/24 00:43:08;;;;;;;9.10;3.03;;;4.20;99.90;;;;;;5049171;28;20103;-56
2024/03/24 00:45:33;;;;;;;13.05;2.75;;;4.20;99.90;;;;;;5046679;28;20552;-56
2024/03/24 00:47:59;;;;;;;9.10;2.50;;;4.20;99.90;;;;;;5048863;28;20046;-57
2024/03/24 00:50:24;;;;;;;5.10;2.58;;;4.20;99.90;;;;;;5047802;28;20079;-54
2024/03/24 00:52:50;;;;;;;6.40;2.45;;;4.20;99.90;;;;;;5047808;28;20035;-56
2024/03/24 00:55:16;;;;;;;11.02;2.85;;;4.20;99.90;;;;;;5047210;28;20440;-56
2024/03/24 00:57:41;;;;;;;5.88;2.60;;;4.10;99.90;;;;;;5047522;28;20060;-56
2024/03/24 01:00:07;;;;;;;8.27;2.35;;;4.20;99.90;;;;;;5028767;28;20506;-55
2024/03/24 01:02:33;;;;;;;6.93;1.98;;;4.20;99.90;;;;;;5046737;28;20029;-56
2024/03/24 01:05:00;;;;;;;10.55;2.28;;;4.20;99.90;;;;;;5058490;22;20518;-54
2024/03/24 01:07:28;;;;;;;12.18;2.45;;;4.10;99.90;;;;;;5030696;28;20040;-56
2024/03/24 01:09:54;;;;;;;13.35;2.38;;;4.20;99.90;;;;;;5030933;28;20094;-56
2024/03/24 01:12:22;;;;;;;9.43;1.90;;;4.10;99.90;;;;;;5030833;28;20172;-57
2024/03/24 01:14:47;;;;;;;8.05;2.00;;;4.10;99.90;;;;;;5031133;28;20021;-55
2024/03/24 01:17:13;;;;;;;7.15;2.25;;;4.10;99.90;;;;;;5030783;28;20364;-59
2024/03/24 01:19:38;;;;;;;7.90;1.98;;;4.00;99.90;;;;;;5030597;28;20364;-55
2024/03/24 01:22:04;;;;;;;4.35;1.70;;;4.00;99.90;;;;;;5030866;28;20463;-55
2024/03/24 01:24:30;;;;;;;7.53;1.77;;;4.10;99.90;;;;;;5031080;28;20375;-54
2024/03/24 01:26:56;;;;;;;10.48;2.00;;;4.10;99.90;;;;;;5029535;28;20475;-56
2024/03/24 01:29:21;;;;;;;6.90;2.03;;;4.10;99.90;;;;;;5032685;28;20390;-57
2024/03/24 01:31:47;;;;;;;7.07;2.35;;;4.20;99.90;;;;;;5034506;28;20029;-55
2024/03/24 01:34:12;;;;;;;5.72;2.28;;;4.10;99.90;;;;;;5034320;28;20037;-56
2024/03/24 01:36:38;;;;;;;4.28;1.92;;;4.20;99.90;;;;;;5034587;28;20045;-57
2024/03/24 01:39:03;;;;;;;5.50;1.90;;;4.20;99.90;;;;;;5034282;28;20026;-56
2024/03/24 01:41:29;;;;;;;6.28;1.80;;;4.20;99.90;;;;;;5034180;28;20445;-54
2024/03/24 01:43:55;;;;;;;6.15;1.70;;;4.20;99.90;;;;;;5034428;28;20048;-53
2024/03/24 01:46:21;;;;;;;4.60;1.90;;;4.20;99.90;;;;;;5034399;28;20033;-57
2024/03/24 01:48:47;;;;;;;5.75;2.10;;;4.20;99.90;;;;;;5034343;28;20032;-57
2024/03/24 01:51:14;;;;;;;6.78;1.67;;;4.20;99.90;;;;;;5034306;28;20029;-56
2024/03/24 01:53:39;;;;;;;5.25;1.95;;;4.20;99.90;;;;;;5034066;28;20030;-54
2024/03/24 01:56:06;;;;;;;5.00;2.50;;;4.20;99.90;;;;;;5034110;28;20021;-54
2024/03/24 01:58:34;;;;;;;4.88;1.80;;;4.20;99.90;;;;;;5034013;28;20147;-55
2024/03/24 02:01:00;;;;;;;3.75;1.80;;;4.20;99.90;;;;;;5019108;28;20140;-53
2024/03/24 02:03:30;;;;;;;6.18;1.58;;;4.20;99.90;;;;;;5033729;28;20025;-56
2024/03/24 02:05:57;;;;;;;6.38;1.70;;;4.20;99.90;;;;;;5033748;28;20076;-55
2024/03/24 02:08:23;;;;;;;2.92;1.40;;;4.20;99.90;;;;;;5034077;28;20030;-57
2024/03/24 02:10:49;;;;;;;4.95;1.98;;;4.20;99.90;;;;;;5034091;28;20026;-55
2024/03/24 02:13:14;;;;;;;5.22;1.65;;;4.30;99.90;;;;;;5033813;28;20026;-54
2024/03/24 02:15:40;;;;;;;4.75;1.42;;;4.30;99.90;;;;;;5033699;28;20018;-53
2024/03/24 02:18:06;;;;;;;6.40;1.73;;;4.30;99.90;;;;;;5032035;28;20430;-55
2024/03/24 02:20:32;;;;;;;4.97;1.95;;;4.30;99.90;;;;;;5033608;28;20533;-57
2024/03/24 02:22:57;;;;;;;5.22;1.60;;;4.30;99.90;;;;;;5033684;28;20036;-56
2024/03/24 02:25:23;;;;;;;4.22;1.73;;;4.30;99.90;;;;;;5033517;28;20025;-56
2024/03/24 02:27:49;;;;;;;5.95;1.40;;;4.30;99.90;;;;;;5033807;28;20029;-53
2024/03/24 02:30:14;;;;;;;12.60;2.50;;;4.30;99.90;;;;;;5032915;28;20026;-56
2024/03/24 02:32:43;;;;;;;4.70;1.60;;;4.30;99.90;;;;;;5033112;28;20041;-55
2024/03/24 02:35:10;;;;;;;6.10;1.75;;;4.30;99.90;;;;;;5033454;28;20108;-55
2024/03/24 02:37:35;;;;;;;4.88;1.50;;;4.30;99.90;;;;;;5033252;28;20029;-57
2024/03/24 02:40:02;;;;;;;3.58;1.40;;;4.30;99.90;;;;;;5032361;28;20499;-56
2024/03/24 02:42:27;;;;;;;3.28;1.50;;;4.30;99.90;;;;;;5033278;28;20108;-55
2024/03/24 02:44:53;;;;;;;7.90;1.83;;;4.20;99.90;;;;;;5033049;28;20064;-55
2024/03/24 02:47:18;;;;;;;10.15;1.85;;;4.20;99.90;;;;;;5033136;28;20025;-54
2024/03/24 02:49:44;;;;;;;4.50;1.55;;;4.20;99.90;;;;;;5033275;28;20022;-55
2024/03/24 02:52:09;;;;;;;3.80;1.80;;;4.20;99.90;;;;;;5032940;28;20033;-55
2024/03/24 02:54:35;;;;;;;5.07;1.85;;;4.20;99.90;;;;;;5032840;28;20021;-56
2024/03/24 02:57:00;;;;;;;4.10;1.98;;;4.20;99.90;;;;;;5032874;28;20108;-56
2024/03/24 02:59:26;;;;;;;6.93;1.92;;;4.20;99.90;;;;;;5020297;28;20531;-54
2024/03/24 03:01:52;;;;;;;7.82;1.75;;;4.10;99.90;;;;;;5032693;28;20025;-54
2024/03/24 03:04:17;;;;;;;8.55;1.90;;;4.20;99.90;;;;;;5032706;28;20407;-54
2024/03/24 03:06:43;;;;;;;9.18;1.70;;;4.10;99.90;;;;;;5032950;28;20040;-55
2024/03/24 03:09:09;;;;;;;5.43;1.83;;;4.10;99.90;;;;;;5032957;28;20052;-55
2024/03/24 03:11:36;;;;;;;1.85;1.55;;;4.10;99.90;;;;;;5032913;28;20545;-54
2024/03/24 03:14:02;;;;;;;2.58;1.50;;;4.20;99.90;;;;;;5032522;28;20053;-57
2024/03/24 03:16:27;;;;;;;3.63;1.60;;;4.20;99.90;;;;;;5032366;28;20136;-53
2024/03/24 03:18:53;;;;;;;3.83;1.50;;;4.10;99.90;;;;;;5032675;28;20049;-56
2024/03/24 03:21:18;;;;;;;6.38;1.70;;;4.10;99.90;;;;;;5032612;28;20550;-55
2024/03/24 03:23:44;;;;;;;3.95;1.98;;;4.10;99.90;;;;;;5032822;28;20044;-56
2024/03/24 03:26:10;;;;;;;6.72;1.85;;;4.10;99.90;;;;;;5032248;28;20029;-55
2024/03/24 03:28:36;;;;;;;3.55;1.33;;;4.20;99.90;;;;;;5032278;28;20021;-56
2024/03/24 03:31:01;;;;;;;3.33;1.75;;;4.20;99.90;;;;;;5032397;28;20032;-55
2024/03/24 03:33:27;;;;;;;4.43;1.70;;;4.10;99.90;;;;;;5030977;28;20037;-53
2024/03/24 03:35:52;;;;;;;3.30;1.60;;;4.10;99.90;;;;;;5032327;28;20024;-56
2024/03/24 03:38:18;;;;;;;4.18;2.33;;;4.10;99.90;;;;;;5032174;28;20096;-56
2024/03/24 03:40:43;;;;;;;4.00;1.80;;;4.10;99.90;;;;;;5032280;28;20101;-55
2024/03/24 03:43:09;;;;;;;10.57;2.17;;;4.10;99.90;;;;;;5031972;28;20030;-56
2024/03/24 03:45:35;;;;;;;3.97;2.10;;;4.10;99.90;;;;;;5032139;28;20022;-55
2024/03/24 03:48:00;;;;;;;3.67;1.67;;;4.10;99.90;;;;;;5032306;28;20041;-56
2024/03/24 03:50:28;;;;;;;5.55;2.13;;;4.10;99.90;;;;;;5031935;28;20021;-55
2024/03/24 03:52:55;;;;;;;6.85;2.40;;;4.10;99.90;;;;;;5032100;28;20108;-54
2024/03/24 03:55:20;;;;;;;5.32;1.92;;;4.10;99.90;;;;;;5032222;28;20095;-56
2024/03/24 03:57:46;;;;;;;6.68;2.38;;;4.10;99.90;;;;;;5032136;28;20022;-55
2024/03/24 04:00:12;;;;;;;11.88;2.58;;;4.10;99.90;;;;;;5017199;28;20041;-56
2024/03/24 04:02:38;;;;;;;3.28;2.10;;;4.10;99.90;;;;;;5031882;28;20029;-55
2024/03/24 04:05:07;;;;;;;7.50;2.85;;;4.10;99.90;;;;;;5031587;28;20033;-57
2024/03/24 04:07:34;;;;;;;4.53;2.55;;;4.10;99.90;;;;;;5031565;28;20048;-56
2024/03/24 04:09:59;;;;;;;8.13;2.47;;;4.00;99.90;;;;;;5031384;28;20479;-55
2024/03/24 04:12:25;;;;;;;4.95;2.65;;;4.00;99.90;;;;;;5031580;28;20091;-56
2024/03/24 04:14:50;;;;;;;5.18;2.55;;;4.00;99.90;;;;;;5031789;28;20060;-56
2024/03/24 04:17:16;;;;;;;4.40;2.08;;;3.90;99.90;;;;;;5031483;28;20080;-54
2024/03/24 04:19:42;;;;;;;5.80;2.45;;;3.90;99.90;;;;;;5031386;28;20033;-57
2024/03/24 04:22:07;;;;;;;6.30;3.10;;;3.90;99.90;;;;;;5031593;28;20032;-56
2024/03/24 04:24:33;;;;;;;5.68;2.58;;;3.90;99.90;;;;;;5031460;28;20079;-56
2024/03/24 04:26:58;;;;;;;4.88;2.85;;;4.00;99.90;;;;;;5031657;28;20037;-55
2024/03/24 04:29:24;;;;;;;7.57;2.85;;;3.90;99.90;;;;;;5031177;28;20032;-55
2024/03/24 04:31:49;;;;;;;6.50;2.90;;;4.00;99.90;;;;;;5031341;28;20025;-57
2024/03/24 04:34:15;;;;;;;6.40;2.63;;;4.00;99.90;;;;;;5030989;28;20108;-54
2024/03/24 04:36:40;;;;;;;4.90;2.65;;;4.00;99.90;;;;;;5031044;28;20033;-57
2024/03/24 04:39:12;;;;;;;7.60;2.42;;;4.10;99.90;;;;;;5031195;28;20068;-56
2024/03/24 04:41:40;;;;;;;6.85;2.25;;;4.10;99.90;;;;;;5031181;28;20039;-55
2024/03/24 04:44:06;;;;;;;6.00;2.50;;;4.10;99.90;;;;;;5031198;28;20388;-56
2024/03/24 04:46:32;;;;;;;6.05;2.97;;;4.10;99.90;;;;;;5031022;28;20108;-55
2024/03/24 04:48:58;;;;;;;9.55;2.60;;;4.20;99.90;;;;;;5031561;28;20607;-54
2024/03/24 04:51:23;;;;;;;5.20;1.92;;;4.20;99.90;;;;;;5031311;28;20029;-56
2024/03/24 04:53:49;;;;;;;3.35;2.10;;;4.20;99.90;;;;;;5030894;28;20029;-57
2024/03/24 04:56:15;;;;;;;8.32;2.05;;;4.20;99.90;;;;;;5030852;28;20044;-55
2024/03/24 04:58:40;;;;;;;4.68;2.05;;;4.20;99.90;;;;;;5030922;28;20033;-58
2024/03/24 05:01:06;;;;;;;7.38;1.85;;;4.30;99.90;;;;;;5012354;28;20626;-57
2024/03/24 05:03:31;;;;;;;5.78;1.90;;;4.30;99.90;;;;;;5031749;28;20691;-54
2024/03/24 05:05:57;;;;;;;4.85;1.63;;;4.30;99.90;;;;;;5034826;28;20037;-53
2024/03/24 05:08:23;;;;;;;8.77;1.92;;;4.30;99.90;;;;;;5034815;28;20495;-55
2024/03/24 05:10:49;;;;;;;2.22;1.70;;;4.30;99.90;;;;;;5035311;28;20026;-55
2024/03/24 05:13:15;;;;;;;6.80;2.20;;;4.30;99.90;;;;;;5034848;28;20036;-57
2024/03/24 05:15:41;;;;;;;5.32;1.92;;;4.30;99.90;;;;;;5034774;28;20026;-52
2024/03/24 05:18:08;;;;;;;5.25;2.22;;;4.40;99.90;;;;;;5034876;28;20036;-57
2024/03/24 05:20:37;;;;;;;5.00;2.10;;;4.20;99.90;;;;;;5034961;28;20549;-57
2024/03/24 05:23:03;;;;;;;3.53;2.05;;;4.20;99.90;;;;;;5034639;28;20044;-56
2024/03/24 05:25:29;;;;;;;3.05;1.90;;;4.20;99.90;;;;;;5034657;28;20056;-52
2024/03/24 05:27:55;;;;;;;4.90;1.90;;;4.10;99.90;;;;;;5034599;28;20025;-54
2024/03/24 05:30:21;;;;;;;5.80;2.20;;;4.10;99.90;;;;;;5034522;28;20044;-55
2024/03/24 05:32:46;;;;;;;4.15;2.25;;;4.10;99.90;;;;;;5034359;28;20060;-56
2024/03/24 05:35:13;;;;;;;4.22;2.33;;;4.10;99.90;;;;;;5034287;28;20033;-57
2024/03/24 05:37:38;;;;;;;8.05;2.72;;;4.10;99.90;;;;;;5034297;28;20029;-55
2024/03/24 05:40:05;;;;;;;4.50;2.53;;;4.10;99.90;;;;;;5034474;28;20095;-54
2024/03/24 05:42:30;;;;;;;5.75;2.38;;;4.10;99.90;;;;;;5034200;28;20036;-57
2024/03/24 05:44:56;;;;;;;7.85;2.63;;;4.10;99.90;;;;;;5034102;28;20025;-55
2024/03/24 05:47:22;;;;;;;7.45;2.42;;;4.20;99.90;;;;;;5034314;28;20026;-56
2024/03/24 05:49:49;;;;;;;9.68;2.60;;;4.20;99.90;;;;;;5033876;28;20079;-56
2024/03/24 05:52:14;;;;;;;5.25;2.40;;;4.20;99.90;;;;;;5034089;28;20090;-56
2024/03/24 05:54:40;;;;;;;6.63;2.30;;;4.20;99.90;;;;;;5033861;28;20108;-56
2024/03/24 05:57:05;;;;;;;6.88;2.88;;;4.20;99.90;;;;;;5034078;28;20100;-55
2024/03/24 05:59:31;;;;;;;9.93;2.78;;;4.20;99.90;;;;;;5034105;28;20018;-55
2024/03/24 06:01:56;;;;;;;8.48;3.28;;;4.20;99.90;;;;;;5014496;28;20048;-56
2024/03/24 06:04:22;;;;;;;6.85;2.58;;;4.20;99.90;;;;;;5033724;28;20021;-56
2024/03/24 06:06:47;;;;;;;5.70;1.98;;;4.30;99.90;;;;;;5033827;28;20051;-57
2024/03/24 06:09:13;;;;;;;9.55;2.53;;;4.30;99.90;;;;;;5033304;28;20075;-56
2024/03/24 06:11:39;;;;;;;12.00;4.00;;;4.30;99.90;;;;;;5032781;28;20074;-53
2024/03/24 06:14:04;;;;;;;10.30;3.17;;;4.30;99.90;;;;;;5033789;28;20752;-55
2024/03/24 06:16:30;;;;;;;5.95;3.63;;;4.40;99.90;;;;;;5032618;28;20053;-55
2024/03/24 06:18:56;;;;;;;9.15;3.15;;;4.40;99.90;;;;;;5034064;28;20497;-57
2024/03/24 06:21:21;;;;;;;12.82;2.80;;;4.50;99.90;;;;;;5034018;28;20021;-56
2024/03/24 06:23:51;;;;;;;7.10;2.50;;;4.50;99.90;;;;;;5033352;28;20033;-57
2024/03/24 06:26:17;;;;;;;7.38;3.38;;;4.50;99.90;;;;;;5033463;28;20068;-53
2024/03/24 06:28:43;;;;;;;10.65;3.33;;;4.60;99.90;;;;;;5033319;28;20053;-56
2024/03/24 06:31:08;;;;;;;8.20;3.47;;;4.60;99.90;;;;;;5033145;28;20025;-53
2024/03/24 06:33:34;;;;;;;9.52;3.80;;;4.70;99.90;;;;;;5032653;28;20376;-55
2024/03/24 06:35:59;;;;;;;8.85;3.33;;;4.70;99.90;;;;;;5032936;28;20032;-55
2024/03/24 06:38:27;;;;;;;7.43;3.25;;;4.80;99.90;;;;;;5032869;28;20494;-55
2024/03/24 06:40:53;;;;;;;10.48;3.20;;;4.80;99.90;;;;;;5031785;28;20116;-58
2024/03/24 06:43:36;;;;;;;9.43;3.83;;;4.80;99.90;;;;;;5033169;28;20161;-56
2024/03/24 06:46:01;;;;;;;8.73;3.53;;;4.90;99.90;;;;;;5032696;28;20033;-56
2024/03/24 06:48:27;;;;;;;13.10;4.35;;;4.90;99.90;;;;;;5032513;28;20036;-57
2024/03/24 06:50:54;;;;;;;14.68;4.35;;;4.90;99.90;;;;;;5032603;28;20049;-55
2024/03/24 06:53:19;;;;;;;12.45;4.57;;;4.90;99.90;;;;;;5032504;28;20032;-57
2024/03/24 06:55:49;;;;;;;7.55;3.60;;;5.00;99.90;;;;;;5032384;28;20029;-56
2024/03/24 06:58:16;;;;;;;9.93;3.60;;;5.00;99.90;;;;;;5032486;28;20021;-56
2024/03/24 07:00:41;;;;;;;13.85;4.50;;;5.00;99.90;;;;;;5007713;28;20057;-57
2024/03/24 07:03:07;;;;;;;11.85;4.32;;;5.10;99.90;;;;;;5032431;28;20593;-55
2024/03/24 07:05:32;;;;;;;12.95;5.55;;;5.10;99.90;;;;;;5049382;22;20074;-55
2024/03/24 07:07:58;;;;;;;9.55;4.60;;;5.20;99.90;;;;;;5048852;28;20033;-55
2024/03/24 07:10:23;;;;;;;13.07;3.65;;;5.40;99.90;;;;;;5050310;28;20049;-54
2024/03/24 07:12:49;;;;;;;20.70;5.20;;;5.50;99.90;;;;;;5052390;28;20021;-54
2024/03/24 07:15:14;;;;;;;10.88;4.70;;;5.50;99.90;;;;;;5049007;28;20017;-56
2024/03/24 07:17:40;;;;;;;18.00;5.32;;;5.60;99.90;;;;;;5048837;28;20021;-52
2024/03/24 07:20:07;;;;;;;15.77;4.78;;;5.60;99.90;;;;;;5048077;28;20041;-55
2024/03/24 07:22:32;;;;;;;16.58;5.18;;;5.60;99.90;;;;;;5051371;28;20024;-55
2024/03/24 07:24:58;;;;;;;16.17;4.65;;;5.60;99.90;;;;;;5061939;28;20027;-53
2024/03/24 07:27:24;;;;;;;17.30;4.85;;;5.60;99.90;;;;;;5052933;28;20394;-53
2024/03/24 07:29:50;;;;;;;14.18;3.92;;;5.60;99.90;;;;;;5047918;28;20540;-55
2024/03/24 07:32:16;;;;;;;13.75;5.45;;;5.70;99.90;;;;;;5046439;28;20062;-55
2024/03/24 07:34:42;;;;;;;13.82;3.55;;;5.70;99.90;;;;;;5053355;28;20398;-55
2024/03/24 07:37:08;;;;;;;12.52;4.63;;;5.80;99.90;;;;;;5053917;28;20453;-55
2024/03/24 07:39:33;;;;;;;12.48;4.05;;;5.80;99.90;;;;;;5053370;28;20108;-55
2024/03/24 07:41:59;;;;;;;9.50;4.03;;;5.80;99.90;;;;;;5051769;28;20104;-54
2024/03/24 07:44:24;;;;;;;11.07;4.40;;;5.60;99.90;;;;;;5048987;28;20082;-53
2024/03/24 07:46:50;;;;;;;14.52;3.90;;;5.70;99.90;;;;;;5058792;28;20434;-53
2024/03/24 07:49:16;;;;;;;9.40;3.70;;;5.60;99.90;;;;;;5060585;28;20099;-52
2024/03/24 07:51:41;;;;;;;11.95;3.65;;;5.70;99.90;;;;;;5050805;28;20064;-52
2024/03/24 07:54:07;;;;;;;16.83;4.28;;;5.70;99.90;;;;;;5048145;28;20368;-54
2024/03/24 07:56:33;;;;;;;10.38;3.72;;;5.80;99.90;;;;;;5046121;28;20025;-55
2024/03/24 07:58:59;;;;;;;15.00;3.88;;;5.80;99.90;;;;;;5050742;28;20052;-54
2024/03/24 08:01:25;;;;;;;7.47;3.58;;;5.80;99.90;;;;;;5038620;28;20041;-54
2024/03/24 08:03:51;;;;;;;9.18;3.35;;;5.70;99.90;;;;;;5052212;28;20033;-53
2024/03/24 08:06:17;;;;;;;7.50;2.50;;;5.50;99.90;;;;;;5048157;28;20048;-55
2024/03/24 08:08:43;;;;;;;6.18;2.67;;;5.30;99.90;;;;;;5061404;28;20056;-53
2024/03/24 08:11:08;;;;;;;6.13;2.83;;;5.20;99.90;;;;;;5056436;28;20032;-55
2024/03/24 08:13:34;;;;;;;8.98;3.47;;;5.10;99.90;;;;;;5049370;28;20545;-55
2024/03/24 08:16:01;;;;;;;6.72;2.63;;;5.10;99.90;;;;;;5052283;28;20471;-55
2024/03/24 08:18:26;;;;;;;7.38;3.80;;;5.10;99.90;;;;;;5044386;28;20029;-52
2024/03/24 08:20:52;;;;;;;13.18;3.85;;;5.10;99.90;;;;;;5047664;28;20032;-55
2024/03/24 08:23:17;;;;;;;8.55;3.17;;;5.10;99.90;;;;;;5051192;28;20025;-54
2024/03/24 08:25:44;;;;;;;10.60;2.70;;;5.20;99.90;;;;;;5050716;28;20039;-55
2024/03/24 08:28:10;;;;;;;14.73;2.95;;;5.20;99.90;;;;;;5051026;28;20029;-55
2024/03/24 08:30:39;;;;;;;8.43;2.85;;;5.30;99.90;;;;;;5049889;28;20048;-54
2024/03/24 08:33:05;;;;;;;5.20;2.22;;;5.30;99.90;;;;;;5049768;28;20028;-53
2024/03/24 08:35:31;;;;;;;10.30;2.70;;;5.40;99.90;;;;;;5049882;28;20033;-54
2024/03/24 08:37:57;;;;;;;4.82;2.35;;;5.40;99.90;;;;;;5051753;28;20028;-53
2024/03/24 08:40:22;;;;;;;5.18;3.17;;;5.50;99.90;;;;;;5043487;28;20521;-55
2024/03/24 08:42:48;;;;;;;5.50;2.70;;;5.60;99.90;;;;;;5053668;28;20111;-52
2024/03/24 08:45:14;;;;;;;3.80;2.40;;;5.60;99.90;;;;;;5048213;28;20051;-51
2024/03/24 08:47:39;;;;;;;9.82;2.40;;;5.60;99.90;;;;;;5057724;28;20509;-53
2024/03/24 08:50:05;;;;;;;5.25;2.55;;;5.60;99.90;;;;;;5052846;28;20052;-54
2024/03/24 08:52:31;;;;;;;9.55;2.67;;;5.60;99.90;;;;;;5050230;28;20029;-54
2024/03/24 08:54:57;;;;;;;3.40;1.90;;;5.60;99.90;;;;;;5047944;28;20028;-51
2024/03/24 08:57:22;;;;;;;3.08;1.92;;;5.60;99.90;;;;;;5046037;28;20029;-53
2024/03/24 08:59:48;;;;;;;5.15;2.17;;;5.60;99.90;;;;;;5044770;28;20037;-55
2024/03/24 09:02:13;;;;;;;3.40;1.67;;;5.60;99.90;;;;;;5036586;28;20101;-55
2024/03/24 09:04:39;;;;;;;4.43;2.03;;;5.60;99.90;;;;;;5044204;28;20040;-55
2024/03/24 09:07:05;;;;;;;10.82;2.28;;;5.60;99.90;;;;;;5052661;28;20082;-53
2024/03/24 09:09:31;;;;;;;3.85;2.13;;;5.70;99.90;;;;;;5058167;28;20100;-53
2024/03/24 09:11:57;;;;;;;9.82;2.97;;;5.80;99.90;;;;;;5051627;28;20017;-55
2024/03/24 09:14:22;;;;;;;8.73;3.22;;;6.10;99.90;;;;;;5048630;28;20033;-54
2024/03/24 09:16:48;;;;;;;6.80;3.45;;;6.50;99.90;;;;;;5046794;28;20040;-56
2024/03/24 09:19:15;;;;;;;6.75;3.35;;;6.90;99.90;;;;;;5044842;28;20489;-55
2024/03/24 09:21:41;;;;;;;13.43;3.83;;;7.00;99.90;;;;;;5049878;28;20081;-56
2024/03/24 09:24:07;;;;;;;12.05;4.47;;;7.20;99.90;;;;;;5047073;28;20522;-55
2024/03/24 09:26:35;;;;;;;10.55;2.88;;;7.40;99.90;;;;;;5059909;28;20064;-55
2024/03/24 09:29:00;;;;;;;7.82;3.13;;;7.90;99.90;;;;;;5047899;28;20029;-55
2024/03/24 09:31:26;;;;;;;7.30;2.28;;;8.40;99.90;;;;;;5044278;28;20036;-54
2024/03/24 09:33:51;;;;;;;6.35;2.03;;;8.40;99.90;;;;;;5048649;28;20029;-52
2024/03/24 09:36:17;;;;;;;4.38;2.08;;;8.60;99.90;;;;;;5048419;28;20081;-55
2024/03/24 09:38:44;;;;;;;3.85;1.80;;;8.40;99.90;;;;;;5047372;28;20021;-52
2024/03/24 09:41:09;;;;;;;5.43;2.10;;;8.20;99.90;;;;;;5048277;28;20036;-55
2024/03/24 09:43:35;;;;;;;7.70;1.85;;;8.00;99.90;;;;;;5047646;28;20061;-55
2024/03/24 09:46:01;;;;;;;10.32;2.80;;;8.00;99.90;;;;;;5054272;28;20040;-56
2024/03/24 09:48:28;;;;;;;5.18;2.42;;;8.10;99.90;;;;;;5043022;28;20116;-53
2024/03/24 09:50:56;;;;;;;4.55;1.88;;;7.90;99.90;;;;;;5047381;28;20025;-54
2024/03/24 09:53:22;;;;;;;14.30;3.35;;;7.80;99.90;;;;;;5049775;28;20075;-55
2024/03/24 09:55:48;;;;;;;6.28;1.65;;;7.80;99.90;;;;;;5046960;28;20499;-56
2024/03/24 09:58:17;;;;;;;7.50;3.53;;;7.90;99.90;;;;;;5044780;28;20025;-56
2024/03/24 10:00:44;;;;;;;7.00;2.40;;;7.90;99.90;;;;;;5059179;28;20375;-56
2024/03/24 10:03:09;;;;;;;11.38;2.65;;;7.90;99.90;;;;;;5042008;28;20158;-54
2024/03/24 10:05:36;;;;;;;5.78;2.75;;;7.90;99.90;;;;;;5051665;28;20075;-56
2024/03/24 10:08:02;;;;;;;9.80;2.67;;;8.10;99.90;;;;;;5060996;28;20039;-56
2024/03/24 10:10:28;;;;;;;7.20;2.28;;;8.10;99.90;;;;;;5054423;28;20530;-55
2024/03/24 10:12:55;;;;;;;6.35;2.25;;;8.30;99.90;;;;;;5058559;28;20035;-56
2024/03/24 10:15:23;;;;;;;7.45;2.45;;;8.20;99.90;;;;;;5056134;28;20060;-55
2024/03/24 10:18:06;;;;;;;6.30;2.40;;;8.20;99.90;;;;;;5047154;28;20017;-56
2024/03/24 10:20:33;;;;;;;6.43;2.53;;;8.00;99.90;;;;;;5053717;28;20025;-54
2024/03/24 10:22:59;;;;;;;7.55;1.90;;;8.00;99.90;;;;;;5052437;28;20506;-55
2024/03/24 10:25:26;;;;;;;5.60;1.98;;;8.00;99.90;;;;;;5054710;28;20039;-57
2024/03/24 10:27:52;;;;;;;10.18;2.22;;;7.90;99.90;;;;;;5052490;28;20071;-52
2024/03/24 10:30:19;;;;;;;6.60;1.58;;;8.10;99.90;;;;;;5050964;28;20360;-54
2024/03/24 10:32:44;;;;;;;7.90;1.83;;;8.40;99.90;;;;;;5049327;28;20112;-55
2024/03/24 10:35:10;;;;;;;4.68;2.10;;;8.60;99.90;;;;;;5062674;28;20134;-53
2024/03/24 10:37:36;;;;;;;8.93;2.33;;;8.90;99.90;;;;;;5051062;28;20047;-53
2024/03/24 10:40:12;;;;;;;7.63;2.15;;;9.10;99.90;;;;;;5047297;28;20025;-55
2024/03/24 10:42:44;;;;;;;8.13;2.85;;;8.90;99.90;;;;;;5049608;28;20029;-54
2024/03/24 10:45:14;;;;;;;7.57;2.38;;;8.90;99.90;;;;;;5049675;28;20429;-54
2024/03/24 10:47:39;;;;;;;8.57;2.95;;;9.00;99.90;;;;;;5051242;28;20047;-54
2024/03/24 10:50:09;;;;;;;8.05;2.80;;;9.40;99.90;;;;;;5059299;28;20470;-55
2024/03/24 10:52:40;;;;;;;8.38;2.55;;;9.80;99.90;;;;;;5054511;28;20040;-55
2024/03/24 10:55:07;;;;;;;9.25;2.53;;;10.10;99.90;;;;;;5051477;28;20124;-57
2024/03/24 10:57:34;;;;;;;9.45;2.83;;;10.20;99.90;;;;;;5054433;28;20091;-57
2024/03/24 11:00:00;;;;;;;8.73;2.53;;;10.00;99.90;;;;;;5048501;28;20013;-54
2024/03/24 11:02:26;;;;;;;10.25;2.83;;;10.00;99.90;;;;;;5037582;28;20062;-54
2024/03/24 11:04:52;;;;;;;10.48;2.30;;;9.80;99.90;;;;;;5047273;28;20538;-55
2024/03/24 11:07:19;;;;;;;8.35;2.25;;;9.70;99.90;;;;;;5049825;28;20032;-55
2024/03/24 11:09:44;;;;;;;11.05;2.58;;;9.70;99.90;;;;;;5053137;28;20036;-54
2024/03/24 11:12:11;;;;;;;13.85;2.78;;;9.80;99.90;;;;;;5051048;28;20025;-54
2024/03/24 11:14:37;;;;;;;8.02;2.20;;;9.60;99.90;;;;;;5051202;28;20376;-54
2024/03/24 11:17:03;;;;;;;6.05;2.15;;;9.60;99.90;;;;;;5040853;28;20025;-55
2024/03/24 11:19:29;;;;;;;11.50;2.17;;;9.90;99.90;;;;;;5049338;28;20035;-53
2024/03/24 11:21:57;;;;;;;6.53;2.13;;;10.10;99.90;;;;;;5048353;28;20033;-55
2024/03/24 11:24:26;;;;;;;8.18;1.88;;;10.40;99.90;;;;;;5059736;28;20035;-55
2024/03/24 11:26:51;;;;;;;12.20;3.13;;;10.40;99.90;;;;;;5053886;28;20032;-54
2024/03/24 11:29:45;;;;;;;7.32;2.47;;;10.10;99.90;;;;;;5049653;28;20078;-54
2024/03/24 11:32:12;;;;;;;4.65;1.65;;;9.90;99.90;;;;;;5044164;28;20877;-54
2024/03/24 11:34:54;;;;;;;7.00;3.13;;;9.70;99.90;;;;;;5050664;28;20120;-53
2024/03/24 11:37:20;;;;;;;6.00;2.58;;;9.40;99.90;;;;;;5046394;28;20078;-54
2024/03/24 11:39:48;;;;;;;7.47;2.05;;;9.40;99.90;;;;;;5045092;28;20075;-53
2024/03/24 11:42:13;;;;;;;10.82;1.92;;;9.70;99.90;;;;;;5050648;28;20052;-54
2024/03/24 11:44:42;;;;;;;9.35;2.03;;;9.90;99.90;;;;;;5048129;28;20494;-51
2024/03/24 11:47:07;;;;;;;8.60;1.80;;;10.00;99.90;;;;;;5051455;28;20028;-53
2024/03/24 11:49:45;;;;;;;9.35;1.55;;;10.20;99.90;;;;;;5051970;28;20030;-54
2024/03/24 11:52:15;;;;;;;10.43;1.92;;;10.00;99.90;;;;;;5049753;28;20568;-53
2024/03/24 11:54:42;;;;;;;10.75;2.13;;;10.10;99.90;;;;;;5050521;28;20036;-54
2024/03/24 11:57:08;;;;;;;7.90;1.77;;;9.90;99.90;;;;;;5057940;28;20025;-53
2024/03/24 11:59:34;;;;;;;4.80;1.90;;;9.60;99.90;;;;;;5044979;28;20074;-53
2024/03/24 12:02:01;;;;;;;9.85;1.83;;;9.20;99.90;;;;;;5041320;28;20041;-53
2024/03/24 12:04:26;;;;;;;9.32;2.05;;;8.80;99.90;;;;;;5046162;28;20034;-53
2024/03/24 12:06:52;;;;;;;13.13;3.30;;;8.60;99.90;;;;;;5054199;28;20094;-54
2024/03/24 12:09:18;;;;;;;9.57;2.00;;;8.50;99.90;;;;;;5052087;28;20021;-54
2024/03/24 12:11:44;;;;;;;13.38;2.47;;;8.10;99.90;;;;;;5049701;28;20021;-52
2024/03/24 12:14:10;;;;;;;6.57;1.92;;;7.60;99.90;;;;;;5053743;28;20536;-52
2024/03/24 12:16:36;;;;;;;8.80;1.92;;;7.40;99.90;;;;;;5053058;28;20068;-54
2024/03/24 12:19:01;;;;;;;4.75;1.95;;;7.30;99.90;;;;;;5049474;28;20036;-54
2024/03/24 12:21:30;;;;;;;6.47;1.80;;;7.30;99.90;;;;;;5054225;28;20034;-51
2024/03/24 12:28:13;;;;;;;7.03;1.60;;;7.60;99.90;;;;;;5033538;28;20117;-57
2024/03/24 12:30:40;;;;;;;11.32;2.05;;;7.70;99.90;;;;;;5041421;28;20035;-53
2024/03/24 13:18:07;;;;;;;8.50;1.90;;;8.10;99.90;;;;;;5042947;27;20392;-54
2024/03/24 13:20:36;;;;;;;7.80;2.10;;;8.40;99.90;;;;;;5005969;28;20026;-53
2024/03/24 13:23:02;;;;;;;14.98;2.13;;;8.30;99.90;;;;;;5017501;23;20053;-51
2024/03/24 13:25:28;;;;;;;6.85;1.77;;;8.20;99.90;;;;;;5004319;23;20058;-54
2024/03/24 13:27:59;;;;;;;11.65;1.95;;;8.00;99.90;;;;;;4999669;28;20018;-55
2024/03/24 13:30:25;;;;;;;9.25;2.38;;;8.00;99.90;;;;;;5002730;28;20050;-55
2024/03/24 13:32:50;;;;;;;10.63;2.70;;;8.00;99.90;;;;;;4998017;28;20568;-52
2024/03/24 13:35:16;;;;;;;15.18;2.33;;;8.10;99.90;;;;;;5000730;28;20386;-54
2024/03/24 13:37:45;;;;;;;4.57;2.53;;;8.10;99.90;;;;;;5005749;28;20088;-52
2024/03/24 13:40:22;;;;;;;9.38;2.83;;;8.10;99.90;;;;;;5006105;28;20093;-55